sensor_id;sensor_type;location;lat;lon;timestamp;P1;durP1;ratioP1;P2;durP2;ratioP2
7263;SDS011;3673;52.480;13.348;2022-12-13T00:01:51;19.38;;;10.95;;
7263;SDS011;3673;52.480;13.348;2022-12-13T00:04:20;17.83;;;10.13;;
7263;SDS011;3673;52.480;13.348;2022-12-13T00:06:50;16.48;;;10.07;;
7263;SDS011;3673;52.480;13.348;2022-12-13T00:09:18;16.55;;;9.18;;
7263;SDS011;3673;52.480;13.348;2022-12-13T00:11:46;17.92;;;11.00;;
7263;SDS011;3673;52.480;13.348;2022-12-13T00:14:14;20.27;;;10.20;;
7263;SDS011;3673;52.480;13.348;2022-12-13T00:16:43;17.90;;;10.52;;
7263;SDS011;3673;52.480;13.348;2022-12-13T00:19:11;17.55;;;10.27;;
7263;SDS011;3673;52.480;13.348;2022-12-13T00:21:39;20.50;;;11.27;;
7263;SDS011;3673;52.480;13.348;2022-12-13T00:24:07;19.70;;;10.85;;
7263;SDS011;3673;52.480;13.348;2022-12-13T00:26:34;15.43;;;8.75;;
7263;SDS011;3673;52.480;13.348;2022-12-13T00:29:02;15.95;;;9.27;;
7263;SDS011;3673;52.480;13.348;2022-12-13T00:31:31;17.65;;;10.10;;
7263;SDS011;3673;52.480;13.348;2022-12-13T00:33:59;20.27;;;11.20;;
7263;SDS011;3673;52.480;13.348;2022-12-13T00:36:26;18.35;;;10.32;;
7263;SDS011;3673;52.480;13.348;2022-12-13T00:38:53;19.95;;;10.93;;
7263;SDS011;3673;52.480;13.348;2022-12-13T00:41:27;19.50;;;11.80;;
7263;SDS011;3673;52.480;13.348;2022-12-13T00:43:57;18.05;;;10.65;;
7263;SDS011;3673;52.480;13.348;2022-12-13T00:46:24;20.55;;;10.38;;
7263;SDS011;3673;52.480;13.348;2022-12-13T00:48:52;20.67;;;12.00;;
7263;SDS011;3673;52.480;13.348;2022-12-13T00:51:21;20.75;;;11.55;;
7263;SDS011;3673;52.480;13.348;2022-12-13T00:53:49;21.85;;;12.23;;
7263;SDS011;3673;52.480;13.348;2022-12-13T00:56:17;19.42;;;11.18;;
7263;SDS011;3673;52.480;13.348;2022-12-13T00:58:48;28.52;;;12.88;;
7263;SDS011;3673;52.480;13.348;2022-12-13T01:01:16;20.77;;;12.05;;
7263;SDS011;3673;52.480;13.348;2022-12-13T01:03:47;16.60;;;10.32;;
7263;SDS011;3673;52.480;13.348;2022-12-13T01:06:15;17.58;;;10.45;;
7263;SDS011;3673;52.480;13.348;2022-12-13T01:08:45;17.80;;;10.20;;
7263;SDS011;3673;52.480;13.348;2022-12-13T01:11:13;20.50;;;11.07;;
7263;SDS011;3673;52.480;13.348;2022-12-13T01:13:41;18.48;;;10.60;;
7263;SDS011;3673;52.480;13.348;2022-12-13T01:16:09;19.45;;;10.68;;
7263;SDS011;3673;52.480;13.348;2022-12-13T01:18:38;22.77;;;12.35;;
7263;SDS011;3673;52.480;13.348;2022-12-13T01:21:06;22.08;;;11.75;;
7263;SDS011;3673;52.480;13.348;2022-12-13T01:23:37;23.40;;;11.98;;
7263;SDS011;3673;52.480;13.348;2022-12-13T01:26:05;25.05;;;13.52;;
7263;SDS011;3673;52.480;13.348;2022-12-13T01:28:34;22.15;;;12.82;;
7263;SDS011;3673;52.480;13.348;2022-12-13T01:31:02;20.30;;;12.10;;
7263;SDS011;3673;52.480;13.348;2022-12-13T01:33:32;24.13;;;12.85;;
7263;SDS011;3673;52.480;13.348;2022-12-13T01:35:59;22.95;;;11.93;;
7263;SDS011;3673;52.480;13.348;2022-12-13T01:38:26;22.83;;;12.70;;
7263;SDS011;3673;52.480;13.348;2022-12-13T01:40:53;23.58;;;11.80;;
7263;SDS011;3673;52.480;13.348;2022-12-13T01:43:23;20.83;;;12.60;;
7263;SDS011;3673;52.480;13.348;2022-12-13T01:45:50;23.20;;;12.73;;
7263;SDS011;3673;52.480;13.348;2022-12-13T01:48:18;22.48;;;12.82;;
7263;SDS011;3673;52.480;13.348;2022-12-13T01:50:51;24.38;;;12.80;;
7263;SDS011;3673;52.480;13.348;2022-12-13T01:53:23;24.08;;;13.15;;
7263;SDS011;3673;52.480;13.348;2022-12-13T01:55:55;18.23;;;11.18;;
7263;SDS011;3673;52.480;13.348;2022-12-13T01:58:27;24.23;;;12.18;;
7263;SDS011;3673;52.480;13.348;2022-12-13T02:00:54;22.00;;;10.43;;
7263;SDS011;3673;52.480;13.348;2022-12-13T02:03:23;17.85;;;10.02;;
7263;SDS011;3673;52.480;13.348;2022-12-13T02:05:52;19.38;;;10.50;;
7263;SDS011;3673;52.480;13.348;2022-12-13T02:08:25;19.70;;;11.27;;
7263;SDS011;3673;52.480;13.348;2022-12-13T02:10:53;24.38;;;12.55;;
7263;SDS011;3673;52.480;13.348;2022-12-13T02:13:21;19.63;;;10.68;;
7263;SDS011;3673;52.480;13.348;2022-12-13T02:15:50;18.58;;;10.00;;
7263;SDS011;3673;52.480;13.348;2022-12-13T02:18:31;19.63;;;10.30;;
7263;SDS011;3673;52.480;13.348;2022-12-13T02:21:22;20.48;;;10.88;;
7263;SDS011;3673;52.480;13.348;2022-12-13T02:24:03;21.20;;;11.40;;
7263;SDS011;3673;52.480;13.348;2022-12-13T02:26:58;22.30;;;11.15;;
7263;SDS011;3673;52.480;13.348;2022-12-13T02:32:50;21.48;;;11.68;;
7263;SDS011;3673;52.480;13.348;2022-12-13T02:35:30;21.17;;;11.02;;
7263;SDS011;3673;52.480;13.348;2022-12-13T02:38:07;24.48;;;11.68;;
7263;SDS011;3673;52.480;13.348;2022-12-13T02:40:43;26.67;;;13.73;;
7263;SDS011;3673;52.480;13.348;2022-12-13T02:43:15;22.67;;;11.77;;
7263;SDS011;3673;52.480;13.348;2022-12-13T02:45:49;21.02;;;12.40;;
7263;SDS011;3673;52.480;13.348;2022-12-13T02:48:20;30.23;;;12.68;;
7263;SDS011;3673;52.480;13.348;2022-12-13T02:50:52;22.75;;;11.13;;
7263;SDS011;3673;52.480;13.348;2022-12-13T02:53:20;22.30;;;12.50;;
7263;SDS011;3673;52.480;13.348;2022-12-13T02:55:48;24.08;;;12.13;;
7263;SDS011;3673;52.480;13.348;2022-12-13T02:58:16;23.65;;;12.63;;
7263;SDS011;3673;52.480;13.348;2022-12-13T03:00:52;23.45;;;12.93;;
7263;SDS011;3673;52.480;13.348;2022-12-13T03:03:31;25.27;;;12.88;;
7263;SDS011;3673;52.480;13.348;2022-12-13T03:06:11;21.83;;;12.48;;
7263;SDS011;3673;52.480;13.348;2022-12-13T03:08:57;21.42;;;13.00;;
7263;SDS011;3673;52.480;13.348;2022-12-13T03:11:45;22.55;;;11.80;;
7263;SDS011;3673;52.480;13.348;2022-12-13T03:14:44;25.25;;;13.07;;
7263;SDS011;3673;52.480;13.348;2022-12-13T03:17:22;26.27;;;12.30;;
7263;SDS011;3673;52.480;13.348;2022-12-13T03:19:50;23.33;;;13.07;;
7263;SDS011;3673;52.480;13.348;2022-12-13T03:22:18;27.88;;;13.60;;
7263;SDS011;3673;52.480;13.348;2022-12-13T03:24:45;24.38;;;12.68;;
7263;SDS011;3673;52.480;13.348;2022-12-13T03:27:12;21.83;;;12.57;;
7263;SDS011;3673;52.480;13.348;2022-12-13T03:29:39;21.25;;;11.27;;
7263;SDS011;3673;52.480;13.348;2022-12-13T03:32:06;22.35;;;12.43;;
7263;SDS011;3673;52.480;13.348;2022-12-13T03:34:34;17.92;;;11.68;;
7263;SDS011;3673;52.480;13.348;2022-12-13T03:37:01;22.83;;;12.02;;
7263;SDS011;3673;52.480;13.348;2022-12-13T03:39:28;27.88;;;12.85;;
7263;SDS011;3673;52.480;13.348;2022-12-13T03:41:54;22.63;;;12.70;;
7263;SDS011;3673;52.480;13.348;2022-12-13T03:44:21;20.40;;;11.38;;
7263;SDS011;3673;52.480;13.348;2022-12-13T03:46:48;18.77;;;11.18;;
7263;SDS011;3673;52.480;13.348;2022-12-13T03:49:14;23.27;;;12.63;;
7263;SDS011;3673;52.480;13.348;2022-12-13T03:51:42;20.77;;;11.25;;
7263;SDS011;3673;52.480;13.348;2022-12-13T03:54:09;21.00;;;11.05;;
7263;SDS011;3673;52.480;13.348;2022-12-13T03:56:36;28.90;;;13.27;;
7263;SDS011;3673;52.480;13.348;2022-12-13T03:59:03;21.48;;;11.65;;
7263;SDS011;3673;52.480;13.348;2022-12-13T04:01:30;24.25;;;12.50;;
7263;SDS011;3673;52.480;13.348;2022-12-13T04:03:57;23.58;;;13.35;;
7263;SDS011;3673;52.480;13.348;2022-12-13T04:06:23;20.63;;;10.90;;
7263;SDS011;3673;52.480;13.348;2022-12-13T04:08:51;19.88;;;11.32;;
7263;SDS011;3673;52.480;13.348;2022-12-13T04:11:18;22.80;;;12.00;;
7263;SDS011;3673;52.480;13.348;2022-12-13T04:14:03;20.75;;;11.15;;
7263;SDS011;3673;52.480;13.348;2022-12-13T04:16:30;20.08;;;11.07;;
7263;SDS011;3673;52.480;13.348;2022-12-13T04:18:57;22.70;;;11.32;;
7263;SDS011;3673;52.480;13.348;2022-12-13T04:21:23;20.70;;;11.30;;
7263;SDS011;3673;52.480;13.348;2022-12-13T04:23:51;20.90;;;11.27;;
7263;SDS011;3673;52.480;13.348;2022-12-13T04:26:19;23.63;;;12.57;;
7263;SDS011;3673;52.480;13.348;2022-12-13T04:28:45;23.55;;;12.40;;
7263;SDS011;3673;52.480;13.348;2022-12-13T04:31:12;17.92;;;11.43;;
7263;SDS011;3673;52.480;13.348;2022-12-13T04:33:39;20.20;;;11.32;;
7263;SDS011;3673;52.480;13.348;2022-12-13T04:36:06;22.30;;;11.85;;
7263;SDS011;3673;52.480;13.348;2022-12-13T04:38:33;22.83;;;11.98;;
7263;SDS011;3673;52.480;13.348;2022-12-13T04:41:04;23.83;;;12.32;;
7263;SDS011;3673;52.480;13.348;2022-12-13T04:43:32;18.92;;;11.57;;
7263;SDS011;3673;52.480;13.348;2022-12-13T04:45:59;24.02;;;11.77;;
7263;SDS011;3673;52.480;13.348;2022-12-13T04:48:26;19.88;;;12.40;;
7263;SDS011;3673;52.480;13.348;2022-12-13T04:50:53;19.35;;;11.18;;
7263;SDS011;3673;52.480;13.348;2022-12-13T04:53:19;21.05;;;10.77;;
7263;SDS011;3673;52.480;13.348;2022-12-13T04:55:46;20.80;;;10.50;;
7263;SDS011;3673;52.480;13.348;2022-12-13T04:58:14;22.13;;;12.57;;
7263;SDS011;3673;52.480;13.348;2022-12-13T05:00:41;20.00;;;10.65;;
7263;SDS011;3673;52.480;13.348;2022-12-13T05:03:07;18.25;;;10.13;;
7263;SDS011;3673;52.480;13.348;2022-12-13T05:05:36;19.08;;;10.98;;
7263;SDS011;3673;52.480;13.348;2022-12-13T05:08:04;20.60;;;10.15;;
7263;SDS011;3673;52.480;13.348;2022-12-13T05:10:31;19.70;;;11.05;;
7263;SDS011;3673;52.480;13.348;2022-12-13T05:12:59;23.00;;;10.95;;
7263;SDS011;3673;52.480;13.348;2022-12-13T05:15:27;18.55;;;10.18;;
7263;SDS011;3673;52.480;13.348;2022-12-13T05:17:54;21.42;;;10.95;;
7263;SDS011;3673;52.480;13.348;2022-12-13T05:20:25;19.70;;;10.85;;
7263;SDS011;3673;52.480;13.348;2022-12-13T05:22:53;19.30;;;10.45;;
7263;SDS011;3673;52.480;13.348;2022-12-13T05:25:21;18.92;;;10.35;;
7263;SDS011;3673;52.480;13.348;2022-12-13T05:27:48;18.80;;;10.40;;
7263;SDS011;3673;52.480;13.348;2022-12-13T05:30:15;23.85;;;10.45;;
7263;SDS011;3673;52.480;13.348;2022-12-13T05:32:43;17.02;;;9.82;;
7263;SDS011;3673;52.480;13.348;2022-12-13T05:35:10;19.08;;;10.77;;
7263;SDS011;3673;52.480;13.348;2022-12-13T05:37:37;18.77;;;11.23;;
7263;SDS011;3673;52.480;13.348;2022-12-13T05:40:05;20.70;;;10.73;;
7263;SDS011;3673;52.480;13.348;2022-12-13T05:42:33;18.35;;;10.65;;
7263;SDS011;3673;52.480;13.348;2022-12-13T05:45:02;21.75;;;11.85;;
7263;SDS011;3673;52.480;13.348;2022-12-13T05:47:30;19.70;;;11.73;;
7263;SDS011;3673;52.480;13.348;2022-12-13T05:49:58;22.60;;;11.38;;
7263;SDS011;3673;52.480;13.348;2022-12-13T05:52:24;17.80;;;10.32;;
7263;SDS011;3673;52.480;13.348;2022-12-13T05:54:52;18.85;;;9.90;;
7263;SDS011;3673;52.480;13.348;2022-12-13T05:57:20;18.00;;;10.35;;
7263;SDS011;3673;52.480;13.348;2022-12-13T05:59:47;17.02;;;10.60;;
7263;SDS011;3673;52.480;13.348;2022-12-13T06:02:14;21.33;;;11.50;;
7263;SDS011;3673;52.480;13.348;2022-12-13T06:04:41;23.20;;;11.30;;
7263;SDS011;3673;52.480;13.348;2022-12-13T06:07:10;20.52;;;12.52;;
7263;SDS011;3673;52.480;13.348;2022-12-13T06:09:37;22.58;;;12.38;;
7263;SDS011;3673;52.480;13.348;2022-12-13T06:12:04;25.20;;;11.35;;
7263;SDS011;3673;52.480;13.348;2022-12-13T06:14:33;19.88;;;11.30;;
7263;SDS011;3673;52.480;13.348;2022-12-13T06:17:00;19.92;;;10.77;;
7263;SDS011;3673;52.480;13.348;2022-12-13T06:19:27;20.75;;;11.85;;
7263;SDS011;3673;52.480;13.348;2022-12-13T06:21:54;25.17;;;12.23;;
7263;SDS011;3673;52.480;13.348;2022-12-13T06:24:22;20.38;;;12.20;;
7263;SDS011;3673;52.480;13.348;2022-12-13T06:26:51;22.33;;;12.98;;
7263;SDS011;3673;52.480;13.348;2022-12-13T06:29:19;22.92;;;12.05;;
7263;SDS011;3673;52.480;13.348;2022-12-13T06:31:47;22.08;;;12.40;;
7263;SDS011;3673;52.480;13.348;2022-12-13T06:34:21;23.50;;;12.90;;
7263;SDS011;3673;52.480;13.348;2022-12-13T06:36:48;25.38;;;13.82;;
7263;SDS011;3673;52.480;13.348;2022-12-13T06:39:14;25.52;;;13.35;;
7263;SDS011;3673;52.480;13.348;2022-12-13T06:41:43;22.98;;;13.20;;
7263;SDS011;3673;52.480;13.348;2022-12-13T06:44:10;23.55;;;13.23;;
7263;SDS011;3673;52.480;13.348;2022-12-13T06:46:36;23.60;;;12.15;;
7263;SDS011;3673;52.480;13.348;2022-12-13T06:49:03;28.20;;;14.77;;
7263;SDS011;3673;52.480;13.348;2022-12-13T06:51:31;25.90;;;13.93;;
7263;SDS011;3673;52.480;13.348;2022-12-13T06:53:58;25.08;;;14.30;;
7263;SDS011;3673;52.480;13.348;2022-12-13T06:56:26;29.58;;;14.05;;
7263;SDS011;3673;52.480;13.348;2022-12-13T06:58:55;20.02;;;11.98;;
7263;SDS011;3673;52.480;13.348;2022-12-13T07:01:21;26.42;;;13.25;;
7263;SDS011;3673;52.480;13.348;2022-12-13T07:03:48;27.90;;;14.32;;
7263;SDS011;3673;52.480;13.348;2022-12-13T07:06:16;26.40;;;13.90;;
7263;SDS011;3673;52.480;13.348;2022-12-13T07:08:46;29.30;;;15.00;;
7263;SDS011;3673;52.480;13.348;2022-12-13T07:11:15;28.50;;;14.38;;
7263;SDS011;3673;52.480;13.348;2022-12-13T07:13:45;25.45;;;14.77;;
7263;SDS011;3673;52.480;13.348;2022-12-13T07:16:13;27.85;;;15.55;;
7263;SDS011;3673;52.480;13.348;2022-12-13T07:18:40;21.98;;;14.10;;
7263;SDS011;3673;52.480;13.348;2022-12-13T07:21:07;30.40;;;14.98;;
7263;SDS011;3673;52.480;13.348;2022-12-13T07:23:37;25.25;;;13.63;;
7263;SDS011;3673;52.480;13.348;2022-12-13T07:26:05;27.08;;;15.48;;
7263;SDS011;3673;52.480;13.348;2022-12-13T07:28:33;29.88;;;13.82;;
7263;SDS011;3673;52.480;13.348;2022-12-13T07:31:02;24.15;;;13.90;;
7263;SDS011;3673;52.480;13.348;2022-12-13T07:33:31;27.75;;;14.73;;
7263;SDS011;3673;52.480;13.348;2022-12-13T07:35:59;29.20;;;15.35;;
7263;SDS011;3673;52.480;13.348;2022-12-13T07:38:26;27.45;;;15.07;;
7263;SDS011;3673;52.480;13.348;2022-12-13T07:40:54;28.85;;;15.32;;
7263;SDS011;3673;52.480;13.348;2022-12-13T07:43:22;23.73;;;14.30;;
7263;SDS011;3673;52.480;13.348;2022-12-13T07:45:50;28.00;;;13.68;;
7263;SDS011;3673;52.480;13.348;2022-12-13T07:48:17;26.15;;;13.77;;
7263;SDS011;3673;52.480;13.348;2022-12-13T07:50:45;26.15;;;14.75;;
7263;SDS011;3673;52.480;13.348;2022-12-13T07:53:12;27.70;;;14.90;;
7263;SDS011;3673;52.480;13.348;2022-12-13T07:55:39;27.10;;;14.15;;
7263;SDS011;3673;52.480;13.348;2022-12-13T07:58:06;27.90;;;14.60;;
7263;SDS011;3673;52.480;13.348;2022-12-13T08:00:35;29.50;;;15.73;;
7263;SDS011;3673;52.480;13.348;2022-12-13T08:03:02;27.27;;;14.65;;
7263;SDS011;3673;52.480;13.348;2022-12-13T08:05:29;27.35;;;14.85;;
7263;SDS011;3673;52.480;13.348;2022-12-13T08:07:58;25.90;;;14.65;;
7263;SDS011;3673;52.480;13.348;2022-12-13T08:10:25;29.05;;;14.52;;
7263;SDS011;3673;52.480;13.348;2022-12-13T08:12:52;27.13;;;15.65;;
7263;SDS011;3673;52.480;13.348;2022-12-13T08:15:19;29.15;;;15.05;;
7263;SDS011;3673;52.480;13.348;2022-12-13T08:17:46;28.52;;;15.60;;
7263;SDS011;3673;52.480;13.348;2022-12-13T08:20:13;26.75;;;14.40;;
7263;SDS011;3673;52.480;13.348;2022-12-13T08:22:41;29.98;;;15.02;;
7263;SDS011;3673;52.480;13.348;2022-12-13T08:25:09;25.88;;;14.57;;
7263;SDS011;3673;52.480;13.348;2022-12-13T08:27:36;29.17;;;15.13;;
7263;SDS011;3673;52.480;13.348;2022-12-13T08:30:03;25.25;;;14.00;;
7263;SDS011;3673;52.480;13.348;2022-12-13T08:32:30;25.27;;;14.60;;
7263;SDS011;3673;52.480;13.348;2022-12-13T08:34:57;29.88;;;15.82;;
7263;SDS011;3673;52.480;13.348;2022-12-13T08:37:24;26.15;;;14.75;;
7263;SDS011;3673;52.480;13.348;2022-12-13T08:39:51;34.88;;;18.48;;
7263;SDS011;3673;52.480;13.348;2022-12-13T08:42:19;33.85;;;16.75;;
7263;SDS011;3673;52.480;13.348;2022-12-13T08:44:46;27.48;;;14.75;;
7263;SDS011;3673;52.480;13.348;2022-12-13T08:47:14;24.23;;;14.05;;
7263;SDS011;3673;52.480;13.348;2022-12-13T08:49:41;31.30;;;16.20;;
7263;SDS011;3673;52.480;13.348;2022-12-13T08:52:08;25.67;;;14.95;;
7263;SDS011;3673;52.480;13.348;2022-12-13T08:54:35;27.60;;;14.98;;
7263;SDS011;3673;52.480;13.348;2022-12-13T08:57:01;26.85;;;15.02;;
7263;SDS011;3673;52.480;13.348;2022-12-13T08:59:30;27.17;;;14.55;;
7263;SDS011;3673;52.480;13.348;2022-12-13T09:01:57;22.92;;;13.63;;
7263;SDS011;3673;52.480;13.348;2022-12-13T09:04:23;24.10;;;13.90;;
7263;SDS011;3673;52.480;13.348;2022-12-13T09:06:50;25.55;;;13.88;;
7263;SDS011;3673;52.480;13.348;2022-12-13T09:09:17;27.67;;;15.52;;
7263;SDS011;3673;52.480;13.348;2022-12-13T09:11:44;27.83;;;13.50;;
7263;SDS011;3673;52.480;13.348;2022-12-13T09:14:10;23.10;;;13.63;;
7263;SDS011;3673;52.480;13.348;2022-12-13T09:16:38;32.80;;;15.57;;
7263;SDS011;3673;52.480;13.348;2022-12-13T09:19:05;34.42;;;19.15;;
7263;SDS011;3673;52.480;13.348;2022-12-13T09:21:32;28.67;;;16.80;;
7263;SDS011;3673;52.480;13.348;2022-12-13T09:23:59;26.15;;;13.98;;
7263;SDS011;3673;52.480;13.348;2022-12-13T09:26:26;22.52;;;13.90;;
7263;SDS011;3673;52.480;13.348;2022-12-13T09:28:53;25.25;;;13.52;;
7263;SDS011;3673;52.480;13.348;2022-12-13T09:31:20;28.38;;;14.73;;
7263;SDS011;3673;52.480;13.348;2022-12-13T09:33:48;27.85;;;15.85;;
7263;SDS011;3673;52.480;13.348;2022-12-13T09:36:19;25.33;;;14.02;;
7263;SDS011;3673;52.480;13.348;2022-12-13T09:38:46;30.02;;;13.80;;
7263;SDS011;3673;52.480;13.348;2022-12-13T09:41:18;23.80;;;12.80;;
7263;SDS011;3673;52.480;13.348;2022-12-13T09:46:22;22.20;;;12.55;;
7263;SDS011;3673;52.480;13.348;2022-12-13T09:48:56;23.17;;;12.50;;
7263;SDS011;3673;52.480;13.348;2022-12-13T09:51:24;22.63;;;13.52;;
7263;SDS011;3673;52.480;13.348;2022-12-13T09:53:51;28.40;;;16.00;;
7263;SDS011;3673;52.480;13.348;2022-12-13T09:56:20;26.63;;;15.05;;
7263;SDS011;3673;52.480;13.348;2022-12-13T09:58:49;24.48;;;14.15;;
7263;SDS011;3673;52.480;13.348;2022-12-13T10:01:18;29.60;;;14.57;;
7263;SDS011;3673;52.480;13.348;2022-12-13T10:03:46;26.30;;;14.18;;
7263;SDS011;3673;52.480;13.348;2022-12-13T10:06:17;27.67;;;14.45;;
7263;SDS011;3673;52.480;13.348;2022-12-13T10:08:46;24.63;;;13.10;;
7263;SDS011;3673;52.480;13.348;2022-12-13T10:11:16;28.58;;;14.45;;
7263;SDS011;3673;52.480;13.348;2022-12-13T10:13:47;27.67;;;15.07;;
7263;SDS011;3673;52.480;13.348;2022-12-13T10:16:22;23.90;;;14.57;;
7263;SDS011;3673;52.480;13.348;2022-12-13T10:18:56;25.25;;;13.50;;
7263;SDS011;3673;52.480;13.348;2022-12-13T10:21:26;28.08;;;14.40;;
7263;SDS011;3673;52.480;13.348;2022-12-13T10:23:59;25.83;;;13.75;;
7263;SDS011;3673;52.480;13.348;2022-12-13T10:26:38;24.38;;;13.27;;
7263;SDS011;3673;52.480;13.348;2022-12-13T10:29:05;27.00;;;15.02;;
7263;SDS011;3673;52.480;13.348;2022-12-13T10:31:37;26.02;;;14.98;;
7263;SDS011;3673;52.480;13.348;2022-12-13T10:34:11;26.55;;;14.20;;
7263;SDS011;3673;52.480;13.348;2022-12-13T10:36:47;26.08;;;13.43;;
7263;SDS011;3673;52.480;13.348;2022-12-13T10:39:15;28.20;;;14.40;;
7263;SDS011;3673;52.480;13.348;2022-12-13T10:41:44;28.48;;;14.48;;
7263;SDS011;3673;52.480;13.348;2022-12-13T10:44:16;21.77;;;12.23;;
7263;SDS011;3673;52.480;13.348;2022-12-13T10:46:48;20.50;;;10.88;;
7263;SDS011;3673;52.480;13.348;2022-12-13T10:49:18;22.90;;;11.80;;
7263;SDS011;3673;52.480;13.348;2022-12-13T10:51:49;24.50;;;11.63;;
7263;SDS011;3673;52.480;13.348;2022-12-13T10:54:18;17.48;;;10.93;;
7263;SDS011;3673;52.480;13.348;2022-12-13T10:56:52;24.30;;;11.55;;
7263;SDS011;3673;52.480;13.348;2022-12-13T10:59:33;20.23;;;10.60;;
7263;SDS011;3673;52.480;13.348;2022-12-13T11:02:23;20.77;;;10.65;;
7263;SDS011;3673;52.480;13.348;2022-12-13T11:05:15;24.33;;;11.52;;
7263;SDS011;3673;52.480;13.348;2022-12-13T11:07:51;19.85;;;10.48;;
7263;SDS011;3673;52.480;13.348;2022-12-13T11:10:21;26.90;;;14.05;;
7263;SDS011;3673;52.480;13.348;2022-12-13T11:12:51;23.33;;;10.55;;
7263;SDS011;3673;52.480;13.348;2022-12-13T11:15:24;22.42;;;12.15;;
7263;SDS011;3673;52.480;13.348;2022-12-13T11:17:53;18.05;;;10.43;;
7263;SDS011;3673;52.480;13.348;2022-12-13T11:20:24;19.48;;;11.63;;
7263;SDS011;3673;52.480;13.348;2022-12-13T11:22:59;22.10;;;11.30;;
7263;SDS011;3673;52.480;13.348;2022-12-13T11:25:30;25.30;;;11.30;;
7263;SDS011;3673;52.480;13.348;2022-12-13T11:28:14;20.17;;;11.85;;
7263;SDS011;3673;52.480;13.348;2022-12-13T11:30:56;28.10;;;12.00;;
7263;SDS011;3673;52.480;13.348;2022-12-13T11:33:37;24.85;;;12.23;;
7263;SDS011;3673;52.480;13.348;2022-12-13T11:36:16;25.02;;;12.48;;
7263;SDS011;3673;52.480;13.348;2022-12-13T11:38:58;22.40;;;12.55;;
7263;SDS011;3673;52.480;13.348;2022-12-13T11:41:40;19.60;;;10.00;;
7263;SDS011;3673;52.480;13.348;2022-12-13T11:44:14;23.17;;;12.10;;
7263;SDS011;3673;52.480;13.348;2022-12-13T11:46:45;25.70;;;12.38;;
7263;SDS011;3673;52.480;13.348;2022-12-13T11:49:17;23.92;;;13.07;;
7263;SDS011;3673;52.480;13.348;2022-12-13T11:51:54;18.88;;;10.60;;
7263;SDS011;3673;52.480;13.348;2022-12-13T11:54:29;16.60;;;10.50;;
7263;SDS011;3673;52.480;13.348;2022-12-13T11:57:15;17.77;;;10.57;;
7263;SDS011;3673;52.480;13.348;2022-12-13T11:59:53;17.58;;;10.45;;
7263;SDS011;3673;52.480;13.348;2022-12-13T12:02:31;20.38;;;10.57;;
7263;SDS011;3673;52.480;13.348;2022-12-13T12:05:01;21.92;;;10.70;;
7263;SDS011;3673;52.480;13.348;2022-12-13T12:07:37;18.50;;;10.93;;
7263;SDS011;3673;52.480;13.348;2022-12-13T12:10:14;19.80;;;11.45;;
7263;SDS011;3673;52.480;13.348;2022-12-13T12:12:54;18.35;;;11.15;;
7263;SDS011;3673;52.480;13.348;2022-12-13T12:15:30;22.77;;;13.75;;
7263;SDS011;3673;52.480;13.348;2022-12-13T12:18:01;22.52;;;12.85;;
7263;SDS011;3673;52.480;13.348;2022-12-13T12:20:32;21.58;;;11.98;;
7263;SDS011;3673;52.480;13.348;2022-12-13T12:23:13;21.90;;;11.65;;
7263;SDS011;3673;52.480;13.348;2022-12-13T12:25:59;25.38;;;12.68;;
7263;SDS011;3673;52.480;13.348;2022-12-13T12:28:36;19.27;;;11.07;;
7263;SDS011;3673;52.480;13.348;2022-12-13T12:31:28;21.08;;;10.73;;
7263;SDS011;3673;52.480;13.348;2022-12-13T12:34:02;18.30;;;11.60;;
7263;SDS011;3673;52.480;13.348;2022-12-13T12:36:45;20.55;;;11.40;;
7263;SDS011;3673;52.480;13.348;2022-12-13T12:39:27;15.25;;;8.77;;
7263;SDS011;3673;52.480;13.348;2022-12-13T12:42:11;17.70;;;11.00;;
7263;SDS011;3673;52.480;13.348;2022-12-13T12:45:04;17.85;;;11.07;;
7263;SDS011;3673;52.480;13.348;2022-12-13T12:47:53;18.02;;;9.90;;
7263;SDS011;3673;52.480;13.348;2022-12-13T12:50:38;20.55;;;10.68;;
7263;SDS011;3673;52.480;13.348;2022-12-13T12:53:23;20.07;;;11.10;;
7263;SDS011;3673;52.480;13.348;2022-12-13T12:56:05;20.42;;;11.13;;
7263;SDS011;3673;52.480;13.348;2022-12-13T12:58:49;19.25;;;9.98;;
7263;SDS011;3673;52.480;13.348;2022-12-13T13:01:28;19.05;;;10.40;;
7263;SDS011;3673;52.480;13.348;2022-12-13T13:04:10;20.80;;;11.45;;
7263;SDS011;3673;52.480;13.348;2022-12-13T13:06:41;16.67;;;9.40;;
7263;SDS011;3673;52.480;13.348;2022-12-13T13:09:12;20.30;;;10.20;;
7263;SDS011;3673;52.480;13.348;2022-12-13T13:11:43;23.60;;;12.63;;
7263;SDS011;3673;52.480;13.348;2022-12-13T13:14:27;20.85;;;10.70;;
7263;SDS011;3673;52.480;13.348;2022-12-13T13:16:56;18.80;;;10.15;;
7263;SDS011;3673;52.480;13.348;2022-12-13T13:19:38;18.35;;;9.98;;
7263;SDS011;3673;52.480;13.348;2022-12-13T13:22:29;17.50;;;10.35;;
7263;SDS011;3673;52.480;13.348;2022-12-13T13:27:50;20.25;;;11.98;;
7263;SDS011;3673;52.480;13.348;2022-12-13T13:30:27;19.58;;;11.30;;
7263;SDS011;3673;52.480;13.348;2022-12-13T13:32:55;19.70;;;10.70;;
7263;SDS011;3673;52.480;13.348;2022-12-13T13:38:25;20.33;;;10.30;;
7263;SDS011;3673;52.480;13.348;2022-12-13T13:47:34;20.48;;;10.07;;
7263;SDS011;3673;52.480;13.348;2022-12-13T13:53:51;17.17;;;9.85;;
7263;SDS011;3673;52.480;13.348;2022-12-13T13:56:56;18.23;;;10.23;;
7263;SDS011;3673;52.480;13.348;2022-12-13T14:00:23;17.92;;;9.18;;
7263;SDS011;3673;52.480;13.348;2022-12-13T14:06:39;19.67;;;10.45;;
7263;SDS011;3673;52.480;13.348;2022-12-13T14:09:49;25.73;;;10.63;;
7263;SDS011;3673;52.480;13.348;2022-12-13T14:12:55;16.40;;;9.07;;
7263;SDS011;3673;52.480;13.348;2022-12-13T14:16:21;20.55;;;11.30;;
7263;SDS011;3673;52.480;13.348;2022-12-13T14:19:44;14.95;;;9.43;;
7263;SDS011;3673;52.480;13.348;2022-12-13T14:22:52;18.67;;;9.98;;
7263;SDS011;3673;52.480;13.348;2022-12-13T14:25:35;15.13;;;9.00;;
7263;SDS011;3673;52.480;13.348;2022-12-13T14:28:16;18.20;;;9.18;;
7263;SDS011;3673;52.480;13.348;2022-12-13T14:30:56;15.30;;;9.75;;
7263;SDS011;3673;52.480;13.348;2022-12-13T14:33:23;18.00;;;10.02;;
7263;SDS011;3673;52.480;13.348;2022-12-13T14:35:53;21.48;;;11.55;;
7263;SDS011;3673;52.480;13.348;2022-12-13T14:38:23;19.77;;;10.10;;
7263;SDS011;3673;52.480;13.348;2022-12-13T14:40:51;26.25;;;13.38;;
7263;SDS011;3673;52.480;13.348;2022-12-13T14:43:21;20.30;;;11.32;;
7263;SDS011;3673;52.480;13.348;2022-12-13T14:45:53;24.85;;;12.38;;
7263;SDS011;3673;52.480;13.348;2022-12-13T14:48:22;22.60;;;13.05;;
7263;SDS011;3673;52.480;13.348;2022-12-13T14:50:50;22.00;;;12.60;;
7263;SDS011;3673;52.480;13.348;2022-12-13T14:53:21;21.52;;;12.23;;
7263;SDS011;3673;52.480;13.348;2022-12-13T14:56:02;20.42;;;11.68;;
7263;SDS011;3673;52.480;13.348;2022-12-13T14:58:32;26.05;;;12.88;;
7263;SDS011;3673;52.480;13.348;2022-12-13T15:01:00;22.73;;;12.35;;
7263;SDS011;3673;52.480;13.348;2022-12-13T15:03:28;22.02;;;11.93;;
7263;SDS011;3673;52.480;13.348;2022-12-13T15:05:57;21.52;;;11.88;;
7263;SDS011;3673;52.480;13.348;2022-12-13T15:08:28;25.75;;;13.50;;
7263;SDS011;3673;52.480;13.348;2022-12-13T15:10:59;23.10;;;11.20;;
7263;SDS011;3673;52.480;13.348;2022-12-13T15:13:26;25.98;;;11.93;;
7263;SDS011;3673;52.480;13.348;2022-12-13T15:16:05;19.65;;;11.68;;
7263;SDS011;3673;52.480;13.348;2022-12-13T15:18:35;22.25;;;12.15;;
7263;SDS011;3673;52.480;13.348;2022-12-13T15:21:12;26.85;;;11.32;;
7263;SDS011;3673;52.480;13.348;2022-12-13T15:23:47;25.02;;;13.60;;
7263;SDS011;3673;52.480;13.348;2022-12-13T15:26:14;25.25;;;15.25;;
7263;SDS011;3673;52.480;13.348;2022-12-13T15:28:43;24.80;;;13.40;;